Time,TemperatureF,DewpointF,PressureIn,WindDirection,WindDirectionDegrees,WindSpeedMPH,WindSpeedGustMPH,Humidity,HourlyPrecipIn,Conditions,Clouds,dailyrainin,SoftwareType,DateUTC
2013-04-29 00:00:00,48.9,29.5,29.65,South,187,5.0,11.0,47,8.35,,,0.00,Weather View 32 v70,2013-04-29 07:00:00,
2013-04-29 00:05:00,48.9,29.5,29.65,South,182,3.0,11.0,47,8.35,,,0.00,Weather View 32 v70,2013-04-29 07:05:00,
2013-04-29 00:10:00,48.7,29.9,29.65,SSE,158,3.0,11.0,48,8.35,,,0.00,Weather View 32 v70,2013-04-29 07:10:00,
2013-04-29 00:15:00,48.7,29.9,29.62,SSE,160,0.0,11.0,48,8.35,,,0.00,Weather View 32 v70,2013-04-29 07:15:00,
2013-04-29 00:25:00,48.7,30.4,29.62,SSW,201,4.0,11.0,49,8.35,,,0.00,Weather View 32 v70,2013-04-29 07:25:00,
2013-04-29 00:30:00,48.7,30.4,29.62,SSE,151,4.0,11.0,49,8.35,,,0.00,Weather View 32 v70,2013-04-29 07:30:00,
2013-04-29 00:35:00,48.9,31.1,29.62,South,175,3.0,11.0,50,8.35,,,0.00,Weather View 32 v70,2013-04-29 07:35:00,
2013-04-29 00:44:00,48.9,30.1,29.62,SE,133,3.0,9.0,48,8.35,,,0.00,Weather View 32 v70,2013-04-29 07:44:00,
2013-04-29 00:50:00,48.9,30.1,29.62,South,178,4.0,9.0,48,8.35,,,0.00,Weather View 32 v70,2013-04-29 07:50:00,
2013-04-29 00:55:00,48.9,30.6,29.62,South,171,4.0,9.0,49,8.35,,,0.00,Weather View 32 v70,2013-04-29 07:55:00,
2013-04-29 01:00:00,48.9,30.6,29.62,South,181,0.0,9.0,49,0.00,,,0.00,Weather View 32 v70,2013-04-29 08:00:00,
2013-04-29 01:05:00,48.9,31.1,29.62,SSE,153,0.0,9.0,50,0.00,,,0.00,Weather View 32 v70,2013-04-29 08:05:00,
2013-04-29 01:15:00,48.7,31.4,29.62,South,185,4.0,9.0,51,0.00,,,0.00,Weather View 32 v70,2013-04-29 08:15:00,
2013-04-29 01:20:00,48.6,33.1,29.62,SSE,167,3.0,9.0,55,0.00,,,0.00,Weather View 32 v70,2013-04-29 08:20:00,
2013-04-29 01:25:00,48.4,33.8,29.62,ESE,107,3.0,9.0,57,0.00,,,0.00,Weather View 32 v70,2013-04-29 08:25:00,
2013-04-29 01:30:00,48.4,34.3,29.59,SSW,205,2.0,11.0,58,0.00,,,0.00,Weather View 32 v70,2013-04-29 08:30:00,
2013-04-29 01:40:00,48.4,35.5,29.59,ESE,111,0.0,11.0,61,0.00,,,0.00,Weather View 32 v70,2013-04-29 08:40:00,
2013-04-29 01:45:00,48.2,35.4,29.59,South,188,3.0,11.0,61,0.00,,,0.00,Weather View 32 v70,2013-04-29 08:45:00,
2013-04-29 01:54:00,48.2,35.8,29.59,South,170,3.0,11.0,62,0.00,,,0.00,Weather View 32 v70,2013-04-29 08:54:00,
2013-04-29 02:00:00,48.2,36.2,29.59,SSE,164,3.0,11.0,63,0.00,,,0.00,Weather View 32 v70,2013-04-29 09:00:00,
2013-04-29 02:05:00,48.2,36.2,29.59,ESE,106,4.0,11.0,63,0.00,,,0.00,Weather View 32 v70,2013-04-29 09:05:00,
2013-04-29 02:10:00,48.0,36.8,29.59,SSW,193,2.0,11.0,65,0.00,,,0.00,Weather View 32 v70,2013-04-29 09:10:00,
2013-04-29 02:15:00,48.0,36.8,29.59,South,187,4.0,11.0,65,0.00,,,0.00,Weather View 32 v70,2013-04-29 09:15:00,
2013-04-29 02:25:00,48.0,37.6,29.59,SSW,199,5.0,11.0,67,0.00,,,0.00,Weather View 32 v70,2013-04-29 09:25:00,
2013-04-29 02:30:00,48.0,38.3,29.56,WSW,252,0.0,8.0,69,0.00,,,0.00,Weather View 32 v70,2013-04-29 09:30:00,
2013-04-29 02:35:00,48.0,38.3,0.00,SSE,168,2.0,8.0,69,0.00,,,0.00,Weather View 32 v70,2013-04-29 09:35:00,
2013-04-29 02:40:00,48.0,38.7,29.56,SSE,159,0.0,8.0,70,0.00,,,0.00,Weather View 32 v70,2013-04-29 09:40:00,
2013-04-29 02:50:00,48.0,39.0,29.56,SSW,198,0.0,8.0,71,0.00,,,0.00,Weather View 32 v70,2013-04-29 09:50:00,
2013-04-29 02:55:00,48.0,39.4,29.56,SSW,194,3.0,8.0,72,0.00,,,0.00,Weather View 32 v70,2013-04-29 09:55:00,
2013-04-29 03:00:00,48.0,39.4,29.56,SSW,194,0.0,8.0,72,0.00,,,0.00,Weather View 32 v70,2013-04-29 10:00:00,
2013-04-29 03:05:00,48.0,39.4,0.00,NNW,342,0.0,8.0,72,0.00,,,0.00,Weather View 32 v70,2013-04-29 10:05:00,
2013-04-29 03:15:00,48.0,40.1,29.56,West,279,0.0,8.0,74,0.00,,,0.00,Weather View 32 v70,2013-04-29 10:15:00,
2013-04-29 03:20:00,48.0,40.1,29.56,WNW,295,0.0,8.0,74,0.00,,,0.00,Weather View 32 v70,2013-04-29 10:20:00,
2013-04-29 03:25:00,48.2,40.3,29.56,WNW,298,0.0,8.0,74,0.00,,,0.00,Weather View 32 v70,2013-04-29 10:25:00,
2013-04-29 03:30:00,48.2,40.6,29.59,North,349,0.0,6.0,75,0.00,,,0.00,Weather View 32 v70,2013-04-29 10:30:00,
2013-04-29 03:40:00,48.4,41.2,29.59,WNW,288,0.0,5.0,76,0.00,,,0.00,Weather View 32 v70,2013-04-29 10:40:00,
2013-04-29 03:45:00,48.4,41.2,29.59,WNW,288,0.0,5.0,76,0.00,,,0.00,Weather View 32 v70,2013-04-29 10:45:00,
2013-04-29 03:50:00,48.4,41.5,29.59,WNW,288,4.0,5.0,77,0.00,,,0.00,Weather View 32 v70,2013-04-29 10:50:00,
2013-04-29 03:55:00,48.4,42.2,29.59,NW,318,6.0,8.0,79,0.00,,,0.00,Weather View 32 v70,2013-04-29 10:55:00,
2013-04-29 04:05:00,48.0,42.8,29.59,North,353,5.0,9.0,82,0.00,,,0.00,Weather View 32 v70,2013-04-29 11:05:00,
2013-04-29 04:10:00,47.3,41.8,29.59,North,0,3.0,17.0,81,0.00,,,0.00,Weather View 32 v70,2013-04-29 11:10:00,
2013-04-29 04:15:00,46.8,40.3,29.59,North,353,10.0,17.0,78,0.00,,,0.00,Weather View 32 v70,2013-04-29 11:15:00,
2013-04-29 04:20:00,46.4,39.2,29.59,NNW,344,8.0,17.0,76,0.00,,,0.00,Weather View 32 v70,2013-04-29 11:20:00,
2013-04-29 04:29:00,46.0,38.5,29.59,North,2,3.0,17.0,75,0.00,,,0.00,Weather View 32 v70,2013-04-29 11:29:00,
2013-04-29 04:35:00,46.0,38.5,0.00,North,349,4.0,17.0,75,0.00,,,0.00,Weather View 32 v70,2013-04-29 11:35:00,
2013-04-29 04:44:00,45.7,37.2,29.59,North,357,4.0,17.0,72,0.00,,,0.00,Weather View 32 v70,2013-04-29 11:44:00,
2013-04-29 04:50:00,45.5,35.9,29.59,North,0,5.0,17.0,69,0.00,,,0.00,Weather View 32 v70,2013-04-29 11:50:00,
2013-04-29 04:55:00,45.1,33.7,29.59,NNE,22,4.0,17.0,64,0.00,,,0.00,Weather View 32 v70,2013-04-29 11:55:00,
2013-04-29 05:00:00,45.1,32.9,29.59,NNW,329,3.0,17.0,62,0.00,,,0.00,Weather View 32 v70,2013-04-29 12:00:00,
2013-04-29 05:05:00,44.8,31.7,29.59,North,2,6.0,17.0,60,0.00,,,0.00,Weather View 32 v70,2013-04-29 12:05:00,
2013-04-29 05:14:00,44.8,30.9,29.59,NNE,21,6.0,13.0,58,0.00,,,0.00,Weather View 32 v70,2013-04-29 12:14:00,
2013-04-29 05:20:00,44.6,29.4,29.59,NNW,328,5.0,11.0,55,0.00,,,0.00,Weather View 32 v70,2013-04-29 12:20:00,
2013-04-29 05:25:00,44.6,28.5,29.59,NE,44,2.0,11.0,53,0.00,,,0.00,Weather View 32 v70,2013-04-29 12:25:00,
2013-04-29 05:30:00,44.6,28.5,29.62,NNW,329,6.0,11.0,53,0.00,,,0.00,Weather View 32 v70,2013-04-29 12:30:00,
2013-04-29 05:35:00,44.6,29.0,29.62,NNE,24,4.0,10.0,54,0.00,,,0.00,Weather View 32 v70,2013-04-29 12:35:00,
2013-04-29 05:45:00,44.6,29.0,29.62,NE,44,5.0,10.0,54,0.00,,,0.00,Weather View 32 v70,2013-04-29 12:45:00,
2013-04-29 05:50:00,44.6,28.0,29.62,North,0,3.0,12.0,52,0.00,,,0.00,Weather View 32 v70,2013-04-29 12:50:00,
2013-04-29 05:55:00,44.6,27.1,29.62,NNE,18,6.0,12.0,50,0.00,,,0.00,Weather View 32 v70,2013-04-29 12:55:00,
2013-04-29 06:04:00,44.4,26.9,29.62,North,357,4.0,12.0,50,0.00,,,0.00,Weather View 32 v70,2013-04-29 13:04:00,
2013-04-29 06:10:00,44.4,25.9,29.62,WSW,255,0.0,12.0,48,0.00,,,0.00,Weather View 32 v70,2013-04-29 13:10:00,
2013-04-29 06:15:00,44.6,26.6,29.62,WSW,255,0.0,12.0,49,0.00,,,0.00,Weather View 32 v70,2013-04-29 13:15:00,
2013-04-29 06:24:00,44.6,28.5,29.62,WSW,243,0.0,12.0,53,0.00,,,0.00,Weather View 32 v70,2013-04-29 13:24:00,
2013-04-29 06:29:00,44.8,29.1,29.65,WSW,243,0.0,12.0,54,0.00,,,0.00,Weather View 32 v70,2013-04-29 13:29:00,
2013-04-29 06:35:00,44.8,30.0,29.65,WSW,243,0.0,12.0,56,0.00,,,0.00,Weather View 32 v70,2013-04-29 13:35:00,
2013-04-29 06:40:00,44.6,30.3,29.65,WSW,243,0.0,12.0,57,0.00,,,0.00,Weather View 32 v70,2013-04-29 13:40:00,
2013-04-29 06:45:00,44.6,30.7,29.65,WSW,243,0.0,12.0,58,0.00,,,0.00,Weather View 32 v70,2013-04-29 13:45:00,
2013-04-29 06:55:00,44.6,31.6,29.65,WSW,243,0.0,9.0,60,0.00,,,0.00,Weather View 32 v70,2013-04-29 13:55:00,
2013-04-29 07:00:00,44.4,31.4,29.65,North,353,0.0,9.0,60,0.00,,,0.00,Weather View 32 v70,2013-04-29 14:00:00,
2013-04-29 07:05:00,44.2,29.5,29.65,NW,310,5.0,9.0,56,0.00,,,0.00,Weather View 32 v70,2013-04-29 14:05:00,
2013-04-29 07:10:00,44.2,28.2,29.65,West,276,0.0,5.0,53,0.00,,,0.00,Weather View 32 v70,2013-04-29 14:10:00,
2013-04-29 07:15:00,44.2,28.2,29.65,West,276,0.0,5.0,53,0.00,,,0.00,Weather View 32 v70,2013-04-29 14:15:00,
2013-04-29 07:25:00,44.2,27.2,29.65,NNE,15,0.0,5.0,51,0.00,,,0.00,Weather View 32 v70,2013-04-29 14:25:00,
2013-04-29 07:30:00,44.2,26.3,29.65,North,357,4.0,6.0,49,0.00,,,0.00,Weather View 32 v70,2013-04-29 14:30:00,
2013-04-29 07:35:00,44.2,26.3,29.65,North,0,0.0,6.0,49,0.00,,,0.00,Weather View 32 v70,2013-04-29 14:35:00,
2013-04-29 07:45:00,44.2,26.3,29.65,North,0,0.0,6.0,49,0.00,,,0.00,Weather View 32 v70,2013-04-29 14:45:00,
2013-04-29 07:50:00,44.2,26.3,29.65,WNW,303,0.0,6.0,49,0.00,,,0.00,Weather View 32 v70,2013-04-29 14:50:00,
2013-04-29 07:55:00,44.2,25.8,29.65,NW,321,4.0,6.0,48,0.00,,,0.00,Weather View 32 v70,2013-04-29 14:55:00,
2013-04-29 08:00:00,44.2,25.3,29.65,NW,306,3.0,6.0,47,0.00,,,0.00,Weather View 32 v70,2013-04-29 15:00:00,
2013-04-29 08:10:00,44.1,23.5,29.65,North,6,0.0,9.0,44,0.00,,,0.00,Weather View 32 v70,2013-04-29 15:10:00,
2013-04-29 08:15:00,44.1,24.0,29.68,NE,42,3.0,9.0,45,0.00,,,0.00,Weather View 32 v70,2013-04-29 15:15:00,
2013-04-29 08:25:00,43.5,24.6,29.68,North,357,0.0,9.0,47,0.00,,,0.00,Weather View 32 v70,2013-04-29 15:25:00,
2013-04-29 08:35:00,43.3,25.4,29.68,North,357,0.0,9.0,49,0.00,,,0.00,Weather View 32 v70,2013-04-29 15:35:00,
2013-04-29 08:40:00,43.5,26.1,29.68,North,357,0.0,9.0,50,0.00,,,0.00,Weather View 32 v70,2013-04-29 15:40:00,
2013-04-29 08:45:00,43.5,26.6,29.68,North,357,0.0,9.0,51,0.00,,,0.00,Weather View 32 v70,2013-04-29 15:45:00,
2013-04-29 08:54:00,43.7,27.7,29.68,North,357,0.0,9.0,53,0.00,,,0.00,Weather View 32 v70,2013-04-29 15:54:00,
2013-04-29 09:00:00,44.1,28.9,29.68,North,357,0.0,9.0,55,0.00,,,0.00,Weather View 32 v70,2013-04-29 16:00:00,
2013-04-29 09:05:00,44.1,29.3,29.68,North,357,0.0,5.0,56,0.00,,,0.00,Weather View 32 v70,2013-04-29 16:05:00,
2013-04-29 09:10:00,44.2,29.9,29.68,North,357,0.0,5.0,57,0.00,,,0.00,Weather View 32 v70,2013-04-29 16:10:00,
2013-04-29 09:15:00,44.2,30.4,29.71,ENE,74,0.0,4.0,58,0.00,,,0.00,Weather View 32 v70,2013-04-29 16:15:00,
2013-04-29 09:25:00,43.7,29.9,29.71,East,88,0.0,5.0,58,0.00,,,0.00,Weather View 32 v70,2013-04-29 16:25:00,
2013-04-29 09:30:00,43.3,27.8,29.71,NE,47,0.0,7.0,54,0.00,,,0.00,Weather View 32 v70,2013-04-29 16:30:00,
2013-04-29 09:35:00,42.8,25.9,29.71,NE,47,0.0,7.0,51,0.00,,,0.00,Weather View 32 v70,2013-04-29 16:35:00,
2013-04-29 09:40:00,42.4,25.1,29.71,NNW,338,3.0,7.0,50,0.00,,,0.00,Weather View 32 v70,2013-04-29 16:40:00,
2013-04-29 09:50:00,42.3,25.4,29.71,North,353,3.0,7.0,51,0.00,,,0.00,Weather View 32 v70,2013-04-29 16:50:00,
2013-04-29 09:55:00,42.1,24.8,29.71,NNE,24,4.0,7.0,50,0.00,,,0.00,Weather View 32 v70,2013-04-29 16:55:00,
2013-04-29 10:00:00,41.5,24.3,29.71,ENE,66,8.0,8.0,50,0.00,,,0.00,Weather View 32 v70,2013-04-29 17:00:00,
2013-04-29 10:05:00,41.5,24.3,29.71,NNW,341,0.0,8.0,50,0.00,,,0.00,Weather View 32 v70,2013-04-29 17:05:00,
2013-04-29 10:14:00,41.9,25.1,29.71,NNE,18,0.0,8.0,51,0.00,,,0.00,Weather View 32 v70,2013-04-29 17:14:00,
2013-04-29 10:20:00,42.4,26.0,29.71,NNE,18,0.0,8.0,52,0.00,,,0.00,Weather View 32 v70,2013-04-29 17:20:00,
2013-04-29 10:25:00,42.8,26.8,29.71,NNE,18,0.0,8.0,53,0.00,,,0.00,Weather View 32 v70,2013-04-29 17:25:00,
2013-04-29 10:30:00,43.3,27.3,29.71,NNE,18,0.0,8.0,53,0.00,,,0.00,Weather View 32 v70,2013-04-29 17:30:00,
2013-04-29 10:35:00,43.9,28.3,29.71,ENE,70,0.0,8.0,54,0.00,,,0.00,Weather View 32 v70,2013-04-29 17:35:00,
2013-04-29 10:45:00,44.8,29.6,29.71,ENE,67,0.0,8.0,55,0.00,,,0.00,Weather View 32 v70,2013-04-29 17:45:00,
2013-04-29 10:50:00,45.0,29.7,29.71,East,80,0.0,8.0,55,0.00,,,0.00,Weather View 32 v70,2013-04-29 17:50:00,
2013-04-29 10:55:00,45.0,27.4,29.71,NNE,21,0.0,8.0,50,0.00,,,0.00,Weather View 32 v70,2013-04-29 17:55:00,
2013-04-29 11:00:00,45.3,24.1,29.71,WNW,303,0.0,8.0,43,0.00,,,0.00,Weather View 32 v70,2013-04-29 18:00:00,
2013-04-29 11:10:00,46.4,23.9,29.71,WSW,243,3.0,6.0,41,0.00,,,0.00,Weather View 32 v70,2013-04-29 18:10:00,
2013-04-29 11:15:00,46.4,22.1,29.71,ENE,57,3.0,6.0,38,0.00,,,0.00,Weather View 32 v70,2013-04-29 18:15:00,
2013-04-29 11:20:00,46.6,21.7,29.71,WNW,285,6.0,10.0,37,0.00,,,0.00,Weather View 32 v70,2013-04-29 18:20:00,
2013-04-29 11:25:00,46.8,21.8,29.71,North,4,10.0,11.0,37,0.00,,,0.00,Weather View 32 v70,2013-04-29 18:25:00,
2013-04-29 11:30:00,46.8,21.8,29.71,North,3,3.0,11.0,37,0.00,,,0.00,Weather View 32 v70,2013-04-29 18:30:00,
2013-04-29 11:39:00,46.8,20.5,29.71,NNW,328,4.0,11.0,35,0.00,,,0.00,Weather View 32 v70,2013-04-29 18:39:00,
2013-04-29 11:45:00,47.1,19.4,29.74,North,8,4.0,11.0,33,0.00,,,0.00,Weather View 32 v70,2013-04-29 18:45:00,
2013-04-29 11:50:00,47.1,18.7,29.74,NNW,345,3.0,11.0,32,0.00,,,0.00,Weather View 32 v70,2013-04-29 18:50:00,
2013-04-29 11:59:00,47.1,18.7,29.74,NNW,337,0.0,11.0,32,0.00,,,0.00,Weather View 32 v70,2013-04-29 18:59:00,
2013-04-29 12:05:00,47.1,18.7,29.74,WNW,292,2.0,11.0,32,0.00,,,0.00,Weather View 32 v70,2013-04-29 19:05:00,
2013-04-29 12:10:00,47.1,20.1,29.74,WNW,291,0.0,11.0,34,0.00,,,0.00,Weather View 32 v70,2013-04-29 19:10:00,
2013-04-29 12:15:00,47.3,20.3,29.74,WNW,301,0.0,11.0,34,0.00,,,0.00,Weather View 32 v70,2013-04-29 19:15:00,
2013-04-29 12:20:00,47.7,20.6,29.74,WNW,301,2.0,11.0,34,0.00,,,0.00,Weather View 32 v70,2013-04-29 19:20:00,
2013-04-29 12:30:00,48.4,19.8,29.74,West,266,0.0,11.0,32,0.00,,,0.00,Weather View 32 v70,2013-04-29 19:30:00,
2013-04-29 12:35:00,48.4,19.1,29.74,WNW,282,6.0,11.0,31,0.00,,,0.00,Weather View 32 v70,2013-04-29 19:35:00,
2013-04-29 12:40:00,49.8,23.9,29.74,WSW,257,4.0,10.0,36,0.00,,,0.00,Weather View 32 v70,2013-04-29 19:40:00,
2013-04-29 12:49:00,51.6,22.7,29.74,West,265,0.0,8.0,32,0.00,,,0.00,Weather View 32 v70,2013-04-29 19:49:00,
2013-04-29 12:55:00,50.4,22.3,29.74,West,278,0.0,7.0,33,0.00,,,0.00,Weather View 32 v70,2013-04-29 19:55:00,
2013-04-29 13:00:00,50.2,24.9,29.74,South,187,0.0,6.0,37,0.00,,,0.00,Weather View 32 v70,2013-04-29 20:00:00,
2013-04-29 13:05:00,50.5,25.2,29.74,NNE,33,0.0,7.0,37,0.00,,,0.00,Weather View 32 v70,2013-04-29 20:05:00,
2013-04-29 13:10:00,50.9,25.5,29.74,West,275,2.0,7.0,37,0.00,,,0.00,Weather View 32 v70,2013-04-29 20:10:00,
2013-04-29 13:19:00,50.5,25.2,29.74,NW,305,0.0,7.0,37,0.00,,,0.00,Weather View 32 v70,2013-04-29 20:19:00,
2013-04-29 13:25:00,49.8,24.5,29.74,West,276,5.0,7.0,37,0.00,,,0.00,Weather View 32 v70,2013-04-29 20:25:00,
2013-04-29 13:30:00,49.3,24.1,29.74,NNW,327,7.0,7.0,37,0.00,,,0.00,Weather View 32 v70,2013-04-29 20:30:00,
2013-04-29 13:35:00,48.4,23.9,29.74,North,0,0.0,7.0,38,0.00,,,0.00,Weather View 32 v70,2013-04-29 20:35:00,
2013-04-29 13:40:00,46.9,23.2,29.74,NNW,329,0.0,7.0,39,0.00,,,0.00,Weather View 32 v70,2013-04-29 20:40:00,
2013-04-29 13:50:00,45.3,25.7,29.77,WNW,291,0.0,7.0,46,0.00,,,0.00,Weather View 32 v70,2013-04-29 20:50:00,
2013-04-29 13:55:00,45.0,25.9,29.77,WNW,300,0.0,7.0,47,0.00,,,0.00,Weather View 32 v70,2013-04-29 20:55:00,
2013-04-29 14:00:00,45.1,26.6,29.77,WNW,299,0.0,7.0,48,0.00,,,0.00,Weather View 32 v70,2013-04-29 21:00:00,
2013-04-29 14:05:00,45.1,27.1,0.00,WNW,299,0.0,7.0,49,0.00,,,0.00,Weather View 32 v70,2013-04-29 21:05:00,
2013-04-29 14:15:00,45.3,27.7,29.77,WNW,299,0.0,7.0,50,0.00,,,0.00,Weather View 32 v70,2013-04-29 21:15:00,
2013-04-29 14:20:00,46.0,29.8,29.77,WNW,299,0.0,7.0,53,0.00,,,0.00,Weather View 32 v70,2013-04-29 21:20:00,
2013-04-29 14:25:00,46.2,30.5,29.77,WNW,299,0.0,7.0,54,0.00,,,0.00,Weather View 32 v70,2013-04-29 21:25:00,
2013-04-29 14:30:00,46.2,30.9,29.77,WNW,299,0.0,7.0,55,0.00,,,0.00,Weather View 32 v70,2013-04-29 21:30:00,
2013-04-29 14:39:00,45.3,30.5,29.77,WNW,299,0.0,3.0,56,0.00,,,0.00,Weather View 32 v70,2013-04-29 21:39:00,
2013-04-29 14:45:00,46.8,33.2,25.28,WNW,299,0.0,3.0,59,0.00,,,0.00,Weather View 32 v70,2013-04-29 21:45:00,
2013-04-29 14:50:00,46.4,31.5,29.77,WNW,299,0.0,3.0,56,0.00,,,0.00,Weather View 32 v70,2013-04-29 21:50:00,
2013-04-29 14:55:00,46.6,31.7,29.77,WNW,299,0.0,0.0,56,0.00,,,0.00,Weather View 32 v70,2013-04-29 21:55:00,
2013-04-29 15:04:00,47.5,30.7,29.77,West,276,0.0,4.0,52,0.00,,,0.00,Weather View 32 v70,2013-04-29 22:04:00,
2013-04-29 15:10:00,47.8,26.4,29.77,West,269,2.0,8.0,43,0.00,,,0.00,Weather View 32 v70,2013-04-29 22:10:00,
2013-04-29 15:15:00,48.4,23.9,0.00,West,280,5.0,8.0,38,0.00,,,0.00,Weather View 32 v70,2013-04-29 22:15:00,
2013-04-29 15:20:00,49.1,23.3,29.77,NNW,332,0.0,8.0,36,0.00,,,0.00,Weather View 32 v70,2013-04-29 22:20:00,
2013-04-29 15:29:00,49.6,23.7,29.77,WNW,296,0.0,8.0,36,0.00,,,0.00,Weather View 32 v70,2013-04-29 22:29:00,
2013-04-29 15:35:00,49.8,21.1,29.77,NW,304,0.0,8.0,32,0.00,,,0.00,Weather View 32 v70,2013-04-29 22:35:00,
2013-04-29 15:40:00,50.4,25.0,29.77,ENE,65,0.0,8.0,37,0.00,,,0.00,Weather View 32 v70,2013-04-29 22:40:00,
2013-04-29 15:45:00,50.4,20.8,29.77,WNW,288,0.0,8.0,31,0.00,,,0.00,Weather View 32 v70,2013-04-29 22:45:00,
2013-04-29 15:50:00,50.5,23.2,29.77,WNW,288,0.0,8.0,34,0.00,,,0.00,Weather View 32 v70,2013-04-29 22:50:00,
2013-04-29 16:00:00,50.7,24.7,29.74,WNW,301,0.0,8.0,36,0.00,,,0.00,Weather View 32 v70,2013-04-29 23:00:00,
2013-04-29 16:05:00,50.9,22.0,25.81,NNW,330,3.0,8.0,32,0.00,,,0.00,Weather View 32 v70,2013-04-29 23:05:00,
2013-04-29 16:10:00,51.4,21.0,29.74,North,2,6.0,8.0,30,0.00,,,0.00,Weather View 32 v70,2013-04-29 23:10:00,
2013-04-29 16:15:00,51.6,18.7,29.74,North,9,0.0,8.0,27,0.00,,,0.00,Weather View 32 v70,2013-04-29 23:15:00,
2013-04-29 16:24:00,52.3,20.1,29.74,NW,307,0.0,8.0,28,0.00,,,0.00,Weather View 32 v70,2013-04-29 23:24:00,
2013-04-29 16:30:00,52.5,21.1,29.74,North,7,0.0,6.0,29,0.00,,,0.00,Weather View 32 v70,2013-04-29 23:30:00,
2013-04-29 16:35:00,52.9,20.6,29.74,NW,315,4.0,6.0,28,0.00,,,0.00,Weather View 32 v70,2013-04-29 23:35:00,
2013-04-29 16:40:00,52.9,18.9,29.74,West,260,3.0,8.0,26,0.00,,,0.00,Weather View 32 v70,2013-04-29 23:40:00,
2013-04-29 16:49:00,53.2,19.2,29.74,West,275,3.0,8.0,26,0.00,,,0.00,Weather View 32 v70,2013-04-29 23:49:00,
2013-04-29 16:55:00,53.1,19.0,29.74,WNW,288,8.0,8.0,26,0.00,,,0.00,Weather View 32 v70,2013-04-29 23:55:00,
2013-04-29 17:00:00,52.9,18.9,29.74,ENE,62,0.0,8.0,26,0.00,,,0.00,Weather View 32 v70,2013-04-30 00:00:00,
2013-04-29 17:05:00,52.7,19.6,29.74,WNW,292,0.0,8.0,27,0.00,,,0.00,Weather View 32 v70,2013-04-30 00:05:00,
2013-04-29 17:14:00,52.5,18.6,29.74,West,279,0.0,8.0,26,0.00,,,0.00,Weather View 32 v70,2013-04-30 00:14:00,
2013-04-29 17:20:00,52.5,18.6,29.74,West,277,3.0,8.0,26,0.00,,,0.00,Weather View 32 v70,2013-04-30 00:20:00,
2013-04-29 17:25:00,53.1,19.0,29.74,WSW,242,3.0,10.0,26,0.00,,,0.00,Weather View 32 v70,2013-04-30 00:25:00,
2013-04-29 17:30:00,53.1,19.0,29.74,ENE,59,0.0,10.0,26,0.00,,,0.00,Weather View 32 v70,2013-04-30 00:30:00,
2013-04-29 17:35:00,53.1,19.0,29.74,NNW,342,0.0,10.0,26,0.00,,,0.00,Weather View 32 v70,2013-04-30 00:35:00,
2013-04-29 17:42:00,53.6,19.5,29.74,NNW,344,0.0,10.0,26,0.00,,,0.00,Weather View 32 v70,2013-04-30 00:42:00,
2013-04-29 17:50:00,52.9,18.9,29.74,NNW,342,0.0,10.0,26,0.00,,,0.00,Weather View 32 v70,2013-04-30 00:50:00,
2013-04-29 17:55:00,52.9,19.8,29.74,NE,56,0.0,10.0,27,0.00,,,0.00,Weather View 32 v70,2013-04-30 00:55:00,
2013-04-29 18:00:00,52.9,18.9,29.74,North,353,3.0,10.0,26,0.00,,,0.00,Weather View 32 v70,2013-04-30 01:00:00,
2013-04-29 18:10:00,52.5,18.6,29.74,North,4,0.0,10.0,26,0.00,,,0.00,Weather View 32 v70,2013-04-30 01:10:00,
2013-04-29 18:15:00,52.5,18.6,29.74,North,4,0.0,10.0,26,0.00,,,0.00,Weather View 32 v70,2013-04-30 01:15:00,
2013-04-29 18:20:00,53.1,19.9,29.74,North,4,0.0,10.0,27,0.00,,,0.00,Weather View 32 v70,2013-04-30 01:20:00,
2013-04-29 18:25:00,54.0,19.8,29.74,WNW,297,3.0,10.0,26,0.00,,,0.00,Weather View 32 v70,2013-04-30 01:25:00,
2013-04-29 18:30:00,54.0,19.8,29.74,NW,316,0.0,6.0,26,0.00,,,0.00,Weather View 32 v70,2013-04-30 01:30:00,
2013-04-29 18:39:00,53.6,20.4,29.74,SW,227,3.0,6.0,27,0.00,,,0.00,Weather View 32 v70,2013-04-30 01:39:00,
2013-04-29 18:45:00,54.1,22.5,29.74,SW,220,0.0,5.0,29,0.00,,,0.00,Weather View 32 v70,2013-04-30 01:45:00,
2013-04-29 18:50:00,55.0,22.5,29.74,SE,128,0.0,5.0,28,0.00,,,0.00,Weather View 32 v70,2013-04-30 01:50:00,
2013-04-29 18:55:00,55.0,21.6,29.74,SSE,154,0.0,4.0,27,0.00,,,0.00,Weather View 32 v70,2013-04-30 01:55:00,
2013-04-29 19:04:00,54.3,21.8,29.74,South,185,4.0,6.0,28,0.00,,,0.00,Weather View 32 v70,2013-04-30 02:04:00,
2013-04-29 19:10:00,53.6,20.4,29.74,SW,218,0.0,6.0,27,0.00,,,0.00,Weather View 32 v70,2013-04-30 02:10:00,
2013-04-29 19:15:00,53.1,19.9,29.74,WSW,247,3.0,6.0,27,0.00,,,0.00,Weather View 32 v70,2013-04-30 02:15:00,
2013-04-29 19:20:00,52.7,21.3,29.74,South,185,4.0,6.0,29,0.00,,,0.00,Weather View 32 v70,2013-04-30 02:20:00,
2013-04-29 19:25:00,52.3,21.0,29.74,East,93,0.0,6.0,29,0.00,,,0.00,Weather View 32 v70,2013-04-30 02:25:00,
2013-04-29 19:30:00,52.0,21.5,29.74,South,180,3.0,6.0,30,0.00,,,0.00,Weather View 32 v70,2013-04-30 02:30:00,
2013-04-29 19:43:00,51.8,21.3,29.74,South,181,0.0,6.0,30,0.00,,,0.00,Weather View 32 v70,2013-04-30 02:43:00,
2013-04-29 19:50:00,51.4,22.5,29.74,East,93,0.0,6.0,32,0.00,,,0.00,Weather View 32 v70,2013-04-30 02:50:00,
2013-04-29 19:55:00,51.4,21.8,29.74,SSE,154,0.0,6.0,31,0.00,,,0.00,Weather View 32 v70,2013-04-30 02:55:00,
2013-04-29 20:04:00,50.9,20.5,29.77,ENE,76,0.0,6.0,30,0.00,,,0.00,Weather View 32 v70,2013-04-30 03:04:00,
2013-04-29 20:10:00,50.5,21.0,29.77,NNW,339,0.0,6.0,31,0.00,,,0.00,Weather View 32 v70,2013-04-30 03:10:00,
2013-04-29 20:15:00,50.4,20.8,29.77,NW,312,4.0,6.0,31,0.00,,,0.00,Weather View 32 v70,2013-04-30 03:15:00,
2013-04-29 20:20:00,50.2,20.7,29.77,North,357,3.0,6.0,31,0.00,,,0.00,Weather View 32 v70,2013-04-30 03:20:00,
2013-04-29 20:29:00,49.6,19.4,29.77,NNW,329,0.0,6.0,30,0.00,,,0.00,Weather View 32 v70,2013-04-30 03:29:00,
2013-04-29 20:35:00,49.5,18.5,29.77,NE,43,0.0,6.0,29,0.00,,,0.00,Weather View 32 v70,2013-04-30 03:35:00,
2013-04-29 20:40:00,49.5,17.7,29.77,NE,43,0.0,6.0,28,0.00,,,0.00,Weather View 32 v70,2013-04-30 03:40:00,
2013-04-29 20:45:00,49.5,17.7,29.77,NE,43,0.0,6.0,28,0.00,,,0.00,Weather View 32 v70,2013-04-30 03:45:00,
2013-04-29 20:54:00,49.1,20.5,29.77,ESE,109,0.0,6.0,32,0.00,,,0.00,Weather View 32 v70,2013-04-30 03:54:00,
2013-04-29 20:59:00,48.7,20.9,29.77,SSE,150,3.0,6.0,33,0.00,,,0.00,Weather View 32 v70,2013-04-30 03:59:00,
2013-04-29 21:05:00,48.6,20.7,29.77,SSE,154,0.0,6.0,33,0.00,,,0.00,Weather View 32 v70,2013-04-30 04:05:00,
2013-04-29 21:10:00,48.4,21.3,29.77,SSE,154,0.0,6.0,34,0.00,,,0.00,Weather View 32 v70,2013-04-30 04:10:00,
2013-04-29 21:15:00,48.4,22.6,29.77,ENE,63,0.0,6.0,36,0.00,,,0.00,Weather View 32 v70,2013-04-30 04:15:00,
2013-04-29 21:20:00,48.2,21.8,29.77,SSE,159,0.0,6.0,35,0.00,,,0.00,Weather View 32 v70,2013-04-30 04:20:00,
2013-04-29 21:24:00,47.8,22.8,29.77,SSE,159,0.0,6.0,37,0.00,,,0.00,Weather View 32 v70,2013-04-30 04:24:00,
2013-04-29 21:29:00,47.7,22.6,29.77,SSE,167,0.0,5.0,37,0.00,,,0.00,Weather View 32 v70,2013-04-30 04:29:00,
2013-04-29 21:35:00,47.5,22.5,29.77,SSE,167,0.0,5.0,37,0.00,,,0.00,Weather View 32 v70,2013-04-30 04:35:00,
2013-04-29 21:40:00,47.5,23.1,29.77,SSE,167,0.0,5.0,38,0.00,,,0.00,Weather View 32 v70,2013-04-30 04:40:00,
2013-04-29 21:45:00,47.3,22.9,29.77,SSE,167,0.0,5.0,38,0.00,,,0.00,Weather View 32 v70,2013-04-30 04:45:00,
2013-04-29 21:50:00,47.3,22.3,29.77,SSW,212,0.0,5.0,37,0.00,,,0.00,Weather View 32 v70,2013-04-30 04:50:00,
2013-04-29 21:59:00,47.1,22.8,29.77,ESE,111,0.0,5.0,38,0.00,,,0.00,Weather View 32 v70,2013-04-30 04:59:00,
2013-04-29 22:05:00,46.9,22.6,29.77,SSE,161,0.0,5.0,38,0.00,,,0.00,Weather View 32 v70,2013-04-30 05:05:00,
2013-04-29 22:10:00,46.9,22.6,29.77,WSW,249,0.0,5.0,38,0.00,,,0.00,Weather View 32 v70,2013-04-30 05:10:00,
2013-04-29 22:15:00,46.6,22.3,29.77,South,180,0.0,5.0,38,0.00,,,0.00,Weather View 32 v70,2013-04-30 05:15:00,
2013-04-29 22:20:00,46.4,22.7,29.77,SSE,167,0.0,4.0,39,0.00,,,0.00,Weather View 32 v70,2013-04-30 05:20:00,
2013-04-29 22:29:00,46.2,23.2,29.80,ESE,112,0.0,4.0,40,0.00,,,0.00,Weather View 32 v70,2013-04-30 05:29:00,
2013-04-29 22:35:00,46.0,23.0,29.80,ESE,112,0.0,4.0,40,0.00,,,0.00,Weather View 32 v70,2013-04-30 05:35:00,
2013-04-29 22:40:00,46.0,23.0,29.80,ESE,112,0.0,4.0,40,0.00,,,0.00,Weather View 32 v70,2013-04-30 05:40:00,
2013-04-29 22:45:00,46.0,23.0,29.80,ESE,112,0.0,4.0,40,0.00,,,0.00,Weather View 32 v70,2013-04-30 05:45:00,
2013-04-29 22:54:00,46.0,23.6,29.80,South,175,0.0,4.0,41,0.00,,,0.00,Weather View 32 v70,2013-04-30 05:54:00,
2013-04-29 22:59:00,46.0,23.6,29.80,South,175,0.0,4.0,41,0.00,,,0.00,Weather View 32 v70,2013-04-30 05:59:00,
2013-04-29 23:05:00,46.0,23.0,29.80,South,175,0.0,4.0,40,0.00,,,0.00,Weather View 32 v70,2013-04-30 06:05:00,
2013-04-29 23:10:00,45.9,22.9,29.80,South,175,0.0,4.0,40,0.00,,,0.00,Weather View 32 v70,2013-04-30 06:10:00,
2013-04-29 23:15:00,45.7,23.3,29.80,SE,139,0.0,5.0,41,0.00,,,0.00,Weather View 32 v70,2013-04-30 06:15:00,
2013-04-29 23:20:00,45.7,22.7,29.80,SE,139,0.0,5.0,40,0.00,,,0.00,Weather View 32 v70,2013-04-30 06:20:00,
2013-04-29 23:25:00,45.9,23.5,29.80,SE,139,0.0,5.0,41,0.00,,,0.00,Weather View 32 v70,2013-04-30 06:25:00,
2013-04-29 23:34:00,45.9,23.5,29.80,SE,139,0.0,5.0,41,0.00,,,0.00,Weather View 32 v70,2013-04-30 06:34:00,
2013-04-29 23:40:00,45.9,24.0,29.80,SE,139,0.0,5.0,42,0.00,,,0.00,Weather View 32 v70,2013-04-30 06:40:00,
2013-04-29 23:45:00,45.9,23.5,29.80,SE,139,0.0,5.0,41,0.00,,,0.00,Weather View 32 v70,2013-04-30 06:45:00,
2013-04-29 23:50:00,45.9,23.5,29.80,SE,139,0.0,5.0,41,0.00,,,0.00,Weather View 32 v70,2013-04-30 06:50:00,
2013-04-29 23:59:00,45.5,23.1,29.80,SE,139,0.0,5.0,41,0.00,,,0.00,Weather View 32 v70,2013-04-30 06:59:00,